createdAt,value
2022-08-11T00:00:14.455Z,60.94
2022-08-11T00:03:11.286Z,61.04
2022-08-11T00:05:55.600Z,61.20
2022-08-11T00:08:29.116Z,61.41
2022-08-11T00:11:06.496Z,61.62
2022-08-11T00:13:45.692Z,61.76
2022-08-11T00:16:19.388Z,61.96
2022-08-11T00:18:54.762Z,62.02
2022-08-11T00:22:02.450Z,62.11
2022-08-11T00:24:23.024Z,62.14
2022-08-11T00:26:55.981Z,62.22
2022-08-11T00:29:25.344Z,62.46
2022-08-11T00:31:58.634Z,62.82
2022-08-11T00:34:32.442Z,63.06
2022-08-11T00:37:12.426Z,63.00
2022-08-11T00:39:49.733Z,62.93
2022-08-11T00:43:07.816Z,63.07
2022-08-11T00:46:05.914Z,63.28
2022-08-11T00:49:30.699Z,63.46
2022-08-11T00:52:30.508Z,63.52
2022-08-11T00:55:35.499Z,63.54
2022-08-11T00:58:45.226Z,63.58
2022-08-11T01:02:29.170Z,63.58
2022-08-11T01:05:24.583Z,63.61
2022-08-11T01:08:37.289Z,63.71
2022-08-11T01:11:55.880Z,63.87
2022-08-11T01:14:40.659Z,64.12
2022-08-11T01:17:50.188Z,64.24
2022-08-11T01:20:45.213Z,64.34
2022-08-11T01:23:58.782Z,64.34
2022-08-11T01:26:58.506Z,64.49
2022-08-11T01:30:18.160Z,64.62
2022-08-11T01:33:22.767Z,64.57
2022-08-11T01:36:36.186Z,64.81
2022-08-11T01:39:34.337Z,64.96
2022-08-11T01:43:11.906Z,65.14
2022-08-11T01:45:50.915Z,65.18
2022-08-11T01:48:36.754Z,65.22
2022-08-11T01:51:35.530Z,65.35
2022-08-11T01:54:22.080Z,65.47
2022-08-11T01:57:42.692Z,65.48
2022-08-11T02:00:29.162Z,65.59
2022-08-11T02:03:27.575Z,65.65
2022-08-11T02:06:57.712Z,65.69
2022-08-11T02:09:55.724Z,65.76
2022-08-11T02:12:28.170Z,66.09
2022-08-11T02:15:47.223Z,66.07
2022-08-11T02:18:53.395Z,66.27
2022-08-11T02:22:00.875Z,66.24
2022-08-11T02:24:41.784Z,66.44
2022-08-11T02:27:27.516Z,66.46
2022-08-11T02:30:07.710Z,66.53
2022-08-11T02:33:24.961Z,66.52
2022-08-11T02:36:22.972Z,66.64
2022-08-11T02:39:09.996Z,66.57
2022-08-11T02:42:32.817Z,66.59
2022-08-11T02:45:54.928Z,66.82
2022-08-11T02:49:10.059Z,66.96
2022-08-11T02:52:25.431Z,67.13
2022-08-11T02:55:56.134Z,67.29
2022-08-11T02:59:36.574Z,67.41
2022-08-11T03:02:28.043Z,67.46
2022-08-11T03:06:31.889Z,67.45
2022-08-11T03:09:27.580Z,67.50
2022-08-11T03:13:05.682Z,67.70
2022-08-11T03:16:31.511Z,67.81
2022-08-11T03:19:37.243Z,67.86
2022-08-11T03:22:27.116Z,67.95
2022-08-11T03:25:34.890Z,68.09
2022-08-11T03:28:43.583Z,68.08
2022-08-11T03:32:02.141Z,68.04
2022-08-11T03:34:38.075Z,68.19
2022-08-11T03:37:50.579Z,68.20
2022-08-11T03:40:38.064Z,68.29
2022-08-11T03:43:58.234Z,68.31
2022-08-11T03:47:09.773Z,68.43
2022-08-11T03:50:08.833Z,68.51
2022-08-11T03:53:38.323Z,68.60
2022-08-11T03:56:28.740Z,68.80
2022-08-11T03:59:17.686Z,68.77
2022-08-11T04:02:51.192Z,68.89
2022-08-11T04:05:48.989Z,68.97
2022-08-11T04:09:02.041Z,69.09
2022-08-11T04:12:06.298Z,69.27
2022-08-11T04:15:26.881Z,69.44
2022-08-11T04:18:39.385Z,69.49
2022-08-11T04:21:37.318Z,69.69
2022-08-11T04:24:41.420Z,69.72
2022-08-11T04:27:42.704Z,69.61
2022-08-11T04:40:15.917Z,69.34
2022-08-11T04:43:30.663Z,69.26
2022-08-11T04:46:57.669Z,69.28
2022-08-11T04:50:34.379Z,69.12
2022-08-11T05:14:05.825Z,67.69
2022-08-11T05:17:15.719Z,67.50
2022-08-11T05:20:07.465Z,67.31
2022-08-11T05:22:55.885Z,66.91
2022-08-11T05:26:44.689Z,66.61
2022-08-11T05:32:37.747Z,65.74
2022-08-11T05:35:08.479Z,65.36
2022-08-11T05:38:05.997Z,64.76
2022-08-11T05:41:00.225Z,63.77
2022-08-11T05:44:20.811Z,63.46
2022-08-11T05:47:05.384Z,63.70
2022-08-11T05:49:57.869Z,63.24
2022-08-11T05:52:55.435Z,61.92
2022-08-11T05:56:03.346Z,60.58
2022-08-11T05:58:53.032Z,60.31
2022-08-11T06:01:33.427Z,59.14
2022-08-11T06:04:14.264Z,57.89
2022-08-11T06:06:56.199Z,56.53
2022-08-11T06:09:35.073Z,55.55
2022-08-11T06:12:17.346Z,54.44
2022-08-11T06:14:48.222Z,53.75
2022-08-11T06:17:39.242Z,53.05
2022-08-11T06:20:13.424Z,51.13
2022-08-11T06:22:52.785Z,50.00
2022-08-11T06:25:36.668Z,49.18
2022-08-11T06:28:07.258Z,48.15
2022-08-11T06:30:40.819Z,46.60
2022-08-11T06:33:36.428Z,46.02
2022-08-11T06:36:22.273Z,45.50
2022-08-11T06:39:13.578Z,44.85
2022-08-11T06:42:11.230Z,43.28
2022-08-11T06:45:11.654Z,42.70
2022-08-11T06:47:52.393Z,42.16
2022-08-11T06:50:42.430Z,42.05
2022-08-11T06:53:12.511Z,41.16
2022-08-11T06:56:04.457Z,40.11
2022-08-11T06:58:58.834Z,39.74
2022-08-11T07:01:55.470Z,39.17
2022-08-11T07:05:19.595Z,38.15
2022-08-11T07:08:56.624Z,37.32
2022-08-11T07:13:00.609Z,36.83
2022-08-11T07:16:10.892Z,36.66
2022-08-11T07:18:57.271Z,36.24
2022-08-11T07:22:02.972Z,35.81
2022-08-11T07:25:34.178Z,35.26
2022-08-11T07:28:45.391Z,34.59
2022-08-11T07:31:46.627Z,34.91
2022-08-11T07:34:24.226Z,34.40
2022-08-11T07:36:57.846Z,34.24
2022-08-11T07:39:34.146Z,33.60
2022-08-11T07:42:11.980Z,33.17
2022-08-11T07:45:01.967Z,32.87
2022-08-11T07:47:50.184Z,32.71
2022-08-11T07:50:38.509Z,31.92
2022-08-11T07:53:11.314Z,31.00
2022-08-11T07:55:51.001Z,31.49
2022-08-11T07:58:52.432Z,31.44
2022-08-11T08:01:45.390Z,31.46
2022-08-11T08:04:35.130Z,31.24
2022-08-11T08:07:24.748Z,30.53
2022-08-11T08:10:14.165Z,30.59
2022-08-11T08:13:04.181Z,30.62
2022-08-11T08:15:51.855Z,30.40
2022-08-11T08:18:27.569Z,30.09
2022-08-11T08:21:12.381Z,29.60
2022-08-11T08:23:46.927Z,29.08
2022-08-11T08:26:35.488Z,29.17
2022-08-11T08:29:26.328Z,29.12
2022-08-11T08:31:56.788Z,29.11
2022-08-11T08:34:26.304Z,29.13
2022-08-11T08:36:56.646Z,29.42
2022-08-11T08:39:25.751Z,28.79
2022-08-11T08:41:59.596Z,28.96
2022-08-11T08:44:38.983Z,28.46
2022-08-11T08:47:40.970Z,28.12
2022-08-11T08:51:01.794Z,27.54
2022-08-11T08:53:37.070Z,27.29
2022-08-11T08:56:10.176Z,27.74
2022-08-11T08:58:43.549Z,27.86
2022-08-11T09:01:15.384Z,27.21
2022-08-11T09:04:07.047Z,27.34
2022-08-11T09:06:34.677Z,26.77
2022-08-11T09:09:05.141Z,26.43
2022-08-11T09:11:55.665Z,26.40
2022-08-11T09:14:53.158Z,25.96
2022-08-11T09:17:24.842Z,26.52
2022-08-11T09:20:08.435Z,26.72
2022-08-11T09:23:41.342Z,26.37
2022-08-11T09:26:12.001Z,26.78
2022-08-11T09:28:44.658Z,26.96
2022-08-11T09:31:15.438Z,26.91
2022-08-11T09:33:45.032Z,26.58
2022-08-11T09:36:37.538Z,26.16
2022-08-11T09:39:45.842Z,26.37
2022-08-11T09:42:23.013Z,25.89
2022-08-11T09:44:54.137Z,25.37
2022-08-11T09:47:32.294Z,25.07
2022-08-11T09:50:03.750Z,24.91
2022-08-11T09:52:36.081Z,25.44
2022-08-11T09:55:11.334Z,25.49
2022-08-11T09:58:03.885Z,25.42
2022-08-11T10:00:40.495Z,25.78
2022-08-11T10:03:26.554Z,25.82
2022-08-11T10:06:19.653Z,25.58
2022-08-11T10:09:06.360Z,24.97
2022-08-11T10:11:37.728Z,25.97
2022-08-11T10:14:33.076Z,26.91
2022-08-11T10:17:08.807Z,26.80
2022-08-11T10:19:38.798Z,26.70
2022-08-11T10:22:29.100Z,25.88
2022-08-11T10:25:21.840Z,25.50
2022-08-11T10:28:17.104Z,25.91
2022-08-11T10:31:06.939Z,26.17
2022-08-11T10:34:03.342Z,26.48
2022-08-11T10:36:50.355Z,26.33
2022-08-11T10:39:22.559Z,25.90
2022-08-11T10:42:17.223Z,26.14
2022-08-11T10:45:02.259Z,26.22
2022-08-11T10:47:35.020Z,26.41
2022-08-11T10:50:33.314Z,26.36
2022-08-11T10:53:22.144Z,26.73
2022-08-11T10:56:10.080Z,26.30
2022-08-11T10:58:48.041Z,26.57
2022-08-11T11:01:26.308Z,26.92
2022-08-11T11:04:02.252Z,27.27
2022-08-11T11:07:13.961Z,27.55
2022-08-11T11:10:04.112Z,27.48
2022-08-11T11:13:00.698Z,27.84
2022-08-11T11:15:50.641Z,27.86
2022-08-11T11:18:39.910Z,27.55
2022-08-11T11:21:18.876Z,28.01
2022-08-11T11:24:43.780Z,28.54
2022-08-11T11:27:34.878Z,28.77
2022-08-11T11:30:17.471Z,28.90
2022-08-11T11:33:11.588Z,28.77
2022-08-11T11:36:37.495Z,28.93
2022-08-11T11:39:09.118Z,29.57
2022-08-11T11:41:38.972Z,29.79
2022-08-11T11:44:11.850Z,29.56
2022-08-11T11:46:45.625Z,29.44
2022-08-11T11:49:18.702Z,29.54
2022-08-11T11:51:50.074Z,29.88
2022-08-11T11:54:34.028Z,30.33
2022-08-11T11:57:23.376Z,30.50
2022-08-11T12:00:13.192Z,30.49
2022-08-11T12:02:43.651Z,31.03
2022-08-11T12:05:14.849Z,31.12
2022-08-11T12:08:10.515Z,30.79
2022-08-11T12:11:15.612Z,30.65
2022-08-11T12:13:52.120Z,30.48
2022-08-11T12:16:34.294Z,30.09
2022-08-11T12:19:12.027Z,29.95
2022-08-11T12:22:03.493Z,30.10
2022-08-11T12:24:53.806Z,29.82
2022-08-11T12:27:25.884Z,29.62
2022-08-11T12:30:08.669Z,29.82
2022-08-11T12:32:40.762Z,30.10
2022-08-11T12:35:11.653Z,30.00
2022-08-11T12:37:49.677Z,29.26
2022-08-11T12:41:15.615Z,28.75
2022-08-11T12:43:57.177Z,29.01
2022-08-11T12:46:34.817Z,29.26
2022-08-11T12:49:33.454Z,29.17
2022-08-11T12:52:15.609Z,29.07
2022-08-11T12:54:56.513Z,29.30
2022-08-11T12:58:07.098Z,29.24
2022-08-11T13:00:55.044Z,29.55
2022-08-11T13:03:43.740Z,30.05
2022-08-11T13:06:24.935Z,30.19
2022-08-11T13:09:01.121Z,29.83
2022-08-11T13:11:55.871Z,29.70
2022-08-11T13:14:28.196Z,29.90
2022-08-11T13:17:16.467Z,29.97
2022-08-11T13:19:49.810Z,29.89
2022-08-11T13:22:22.148Z,30.42
2022-08-11T13:24:55.471Z,30.11
2022-08-11T13:27:25.412Z,29.75
2022-08-11T13:30:14.740Z,29.59
2022-08-11T13:32:46.571Z,29.40
2022-08-11T13:35:16.770Z,29.69
2022-08-11T13:38:19.058Z,29.32
2022-08-11T13:40:55.291Z,28.99
2022-08-11T13:43:26.285Z,29.13
2022-08-11T13:46:18.775Z,29.12
2022-08-11T13:48:51.537Z,29.21
2022-08-11T13:51:34.183Z,29.56
2022-08-11T13:54:11.106Z,29.65
2022-08-11T13:56:47.115Z,29.70
2022-08-11T13:59:30.125Z,29.70
2022-08-11T14:02:22.096Z,29.42
2022-08-11T14:05:07.184Z,29.61
2022-08-11T14:07:49.858Z,29.80
2022-08-11T14:10:23.130Z,29.71
2022-08-11T14:13:25.548Z,29.78
2022-08-11T14:16:05.113Z,29.96
2022-08-11T14:18:36.156Z,29.98
2022-08-11T14:21:26.533Z,29.67
2022-08-11T14:23:55.946Z,29.43
2022-08-11T14:26:27.196Z,29.29
2022-08-11T14:29:25.508Z,29.02
2022-08-11T14:32:03.687Z,29.13
2022-08-11T14:34:35.120Z,29.17
2022-08-11T14:37:12.312Z,29.46
2022-08-11T14:39:52.775Z,29.73
2022-08-11T14:42:42.420Z,29.53
2022-08-11T14:45:57.903Z,29.52
2022-08-11T14:48:26.850Z,29.31
2022-08-11T14:50:58.899Z,29.53
2022-08-11T14:53:28.129Z,29.56
2022-08-11T14:56:15.863Z,29.71
2022-08-11T14:58:44.936Z,30.14
2022-08-11T15:01:33.094Z,30.47
2022-08-11T15:04:24.266Z,30.74
2022-08-11T15:06:52.154Z,30.71
2022-08-11T15:09:24.305Z,30.85
2022-08-11T15:12:33.286Z,30.56
2022-08-11T15:15:26.461Z,30.26
2022-08-11T15:18:00.163Z,30.24
2022-08-11T15:20:48.934Z,30.54
2022-08-11T15:23:41.195Z,30.77
2022-08-11T15:26:52.602Z,30.85
2022-08-11T15:29:43.276Z,31.20
2022-08-11T15:32:20.653Z,31.38
2022-08-11T15:35:18.538Z,31.25
2022-08-11T15:37:58.816Z,31.19
2022-08-11T15:40:54.190Z,31.33
2022-08-11T15:44:01.256Z,30.95
2022-08-11T15:46:55.403Z,31.06
2022-08-11T15:50:11.154Z,31.03
2022-08-11T15:52:33.014Z,31.08
2022-08-11T15:55:08.536Z,31.16
2022-08-11T15:58:00.817Z,31.50
2022-08-11T16:00:48.721Z,31.64
2022-08-11T16:04:06.479Z,31.45
2022-08-11T16:07:11.698Z,31.26
2022-08-11T16:10:21.809Z,31.34
2022-08-11T16:13:18.499Z,32.76
2022-08-11T16:16:12.864Z,34.46
2022-08-11T16:19:04.469Z,35.02
2022-08-11T16:21:36.667Z,35.74
2022-08-11T16:26:30.474Z,36.15
2022-08-11T16:27:13.018Z,37.03
2022-08-11T16:29:47.998Z,37.80
2022-08-11T16:32:23.536Z,38.01
2022-08-11T16:35:29.505Z,38.55
2022-08-11T16:38:19.196Z,39.31
2022-08-11T16:40:51.124Z,39.67
2022-08-11T16:43:43.159Z,39.69
2022-08-11T16:46:34.767Z,40.21
2022-08-11T16:49:10.984Z,40.44
2022-08-11T16:51:40.042Z,40.62
2022-08-11T16:54:09.056Z,40.80
2022-08-11T16:57:18.568Z,40.84
2022-08-11T16:59:56.083Z,40.94
2022-08-11T17:02:54.116Z,41.23
2022-08-11T17:05:54.199Z,41.26
2022-08-11T17:08:56.955Z,41.18
2022-08-11T17:11:56.844Z,41.51
2022-08-11T17:14:37.047Z,41.79
2022-08-11T17:17:13.978Z,41.98
2022-08-11T17:20:42.225Z,41.62
2022-08-11T17:23:03.429Z,41.53
2022-08-11T17:26:03.895Z,41.66
2022-08-11T17:28:24.551Z,41.59
2022-08-11T17:31:21.716Z,41.51
2022-08-11T17:34:15.828Z,41.76
2022-08-11T17:36:46.116Z,41.66
2022-08-11T17:39:18.686Z,41.60
2022-08-11T17:42:06.406Z,41.40
2022-08-11T17:44:56.484Z,41.19
2022-08-11T17:47:48.614Z,41.00
2022-08-11T17:50:22.507Z,41.14
2022-08-11T17:53:13.201Z,41.10
2022-08-11T17:56:01.401Z,41.22
2022-08-11T17:58:50.640Z,41.29
2022-08-11T18:01:25.524Z,41.67
2022-08-11T18:04:01.800Z,42.05
2022-08-11T18:06:37.809Z,42.27
2022-08-11T18:09:41.522Z,42.48
2022-08-11T18:12:30.604Z,42.86
2022-08-11T18:15:22.455Z,43.17
2022-08-11T18:18:19.145Z,43.27
2022-08-11T18:21:09.905Z,43.48
2022-08-11T18:23:58.561Z,43.70
2022-08-11T18:26:51.708Z,43.77
2022-08-11T18:29:42.493Z,44.14
2022-08-11T18:32:49.194Z,44.36
2022-08-11T18:35:39.707Z,44.70
2022-08-11T18:38:34.886Z,44.85
2022-08-11T18:41:28.706Z,45.00
2022-08-11T18:44:21.826Z,45.40
2022-08-11T18:47:12.462Z,45.63
2022-08-11T18:50:06.076Z,45.88
2022-08-11T18:52:57.831Z,46.09
2022-08-11T18:55:48.385Z,46.25
2022-08-11T18:58:46.219Z,46.48
2022-08-11T19:01:45.927Z,46.71
2022-08-11T19:04:37.888Z,46.90
2022-08-11T19:07:28.213Z,47.20
2022-08-11T19:10:17.973Z,47.30
2022-08-11T19:13:07.455Z,47.42
2022-08-11T19:15:57.322Z,47.53
2022-08-11T19:18:45.647Z,47.71
2022-08-11T19:21:46.030Z,47.89
2022-08-11T19:24:42.337Z,48.18
2022-08-11T19:27:42.166Z,48.31
2022-08-11T19:30:32.860Z,48.36
2022-08-11T19:34:02.922Z,48.57
2022-08-11T19:36:57.518Z,48.70
2022-08-11T19:39:53.563Z,48.91
2022-08-11T19:43:01.287Z,49.09
2022-08-11T19:46:24.659Z,49.18
2022-08-11T19:49:16.778Z,49.12
2022-08-11T19:52:04.995Z,49.18
2022-08-11T19:54:57.747Z,49.23
2022-08-11T19:57:46.860Z,49.36
2022-08-11T20:00:52.153Z,49.27
2022-08-11T20:03:44.770Z,49.34
2022-08-11T20:06:34.002Z,49.48
2022-08-11T20:10:01.244Z,49.87
2022-08-11T20:12:47.014Z,49.84
2022-08-11T20:15:39.780Z,50.06
2022-08-11T20:18:35.744Z,50.15
2022-08-11T20:21:33.418Z,50.56
2022-08-11T20:24:40.583Z,50.68
2022-08-11T20:27:35.891Z,50.81
2022-08-11T20:30:43.890Z,51.13
2022-08-11T20:33:44.046Z,51.34
2022-08-11T20:36:35.061Z,51.41
2022-08-11T20:39:25.750Z,51.69
2022-08-11T20:42:16.408Z,52.07
2022-08-11T20:45:16.709Z,52.36
2022-08-11T20:48:19.721Z,52.41
2022-08-11T20:51:20.892Z,52.65
2022-08-11T20:54:18.008Z,52.72
2022-08-11T20:58:03.973Z,52.89
2022-08-11T21:00:53.042Z,53.12
2022-08-11T21:03:45.234Z,53.30
2022-08-11T21:06:48.499Z,53.65
2022-08-11T21:12:55.584Z,53.87
2022-08-11T21:16:03.134Z,53.96
2022-08-11T21:18:57.730Z,54.25
2022-08-11T21:21:48.353Z,54.47
2022-08-11T21:24:42.852Z,54.71
2022-08-11T21:27:40.193Z,55.10
2022-08-11T21:30:33.845Z,55.28
2022-08-11T21:33:29.379Z,55.50
2022-08-11T21:36:23.320Z,55.67
2022-08-11T21:39:17.233Z,55.66
2022-08-11T21:42:16.223Z,55.90
2022-08-11T21:45:08.762Z,56.09
2022-08-11T21:48:00.981Z,56.05
2022-08-11T21:50:58.540Z,56.11
2022-08-11T21:53:51.240Z,56.42
2022-08-11T21:56:46.478Z,56.63
2022-08-11T21:59:44.355Z,56.90
2022-08-11T22:02:34.190Z,57.10
2022-08-11T22:05:30.756Z,57.25
2022-08-11T22:08:18.552Z,57.51
2022-08-11T22:11:07.535Z,57.82
2022-08-11T22:14:00.744Z,58.07
2022-08-11T22:16:58.117Z,58.32
2022-08-11T22:19:55.470Z,58.54
2022-08-11T22:22:49.079Z,58.84
2022-08-11T22:25:51.217Z,58.91
2022-08-11T22:28:47.076Z,59.19
2022-08-11T22:31:42.657Z,59.39
2022-08-11T22:34:32.012Z,59.64
2022-08-11T22:37:30.817Z,59.82
2022-08-11T22:40:20.031Z,59.95
2022-08-11T22:43:10.053Z,60.03
2022-08-11T22:45:58.455Z,60.10
2022-08-11T22:48:52.282Z,60.23
2022-08-11T22:51:42.057Z,60.31
2022-08-11T22:54:31.759Z,60.42
2022-08-11T22:57:26.673Z,60.42
2022-08-11T23:00:19.292Z,60.47
2022-08-11T23:03:11.649Z,60.63
2022-08-11T23:06:20.940Z,60.90
2022-08-11T23:09:11.820Z,60.98
2022-08-11T23:12:07.207Z,60.94
2022-08-11T23:15:00.378Z,61.15
2022-08-11T23:17:49.327Z,61.35
2022-08-11T23:20:45.408Z,61.46
2022-08-11T23:23:48.742Z,61.64
2022-08-11T23:26:41.289Z,61.75
2022-08-11T23:29:35.494Z,61.99
2022-08-11T23:32:24.065Z,62.30
2022-08-11T23:35:39.997Z,62.19
2022-08-11T23:38:26.525Z,62.31
2022-08-11T23:41:22.098Z,62.42
2022-08-11T23:44:10.998Z,62.48
2022-08-11T23:47:03.067Z,62.57
2022-08-11T23:49:51.385Z,62.66
2022-08-11T23:52:42.768Z,62.79
2022-08-11T23:55:33.049Z,62.70
2022-08-11T23:58:20.720Z,62.96
